sensor_id;sensor_type;location;lat;lon;timestamp;P1;durP1;ratioP1;P2;durP2;ratioP2
23608;SDS011;11982;50.810;4.442;2023-05-10T00:01:10;38.17;;;17.33;;
23608;SDS011;11982;50.810;4.442;2023-05-10T00:03:36;35.83;;;16.35;;
23608;SDS011;11982;50.810;4.442;2023-05-10T00:06:01;36.78;;;16.77;;
23608;SDS011;11982;50.810;4.442;2023-05-10T00:08:27;36.38;;;17.15;;
23608;SDS011;11982;50.810;4.442;2023-05-10T00:10:53;44.08;;;17.77;;
23608;SDS011;11982;50.810;4.442;2023-05-10T00:16:40;40.95;;;18.20;;
23608;SDS011;11982;50.810;4.442;2023-05-10T00:19:05;36.38;;;16.63;;
23608;SDS011;11982;50.810;4.442;2023-05-10T00:21:31;38.00;;;17.35;;
23608;SDS011;11982;50.810;4.442;2023-05-10T00:23:58;38.35;;;16.90;;
23608;SDS011;11982;50.810;4.442;2023-05-10T00:26:24;41.97;;;16.08;;
23608;SDS011;11982;50.810;4.442;2023-05-10T00:28:50;40.83;;;18.55;;
23608;SDS011;11982;50.810;4.442;2023-05-10T00:31:16;38.78;;;18.02;;
23608;SDS011;11982;50.810;4.442;2023-05-10T00:33:41;43.50;;;18.63;;
23608;SDS011;11982;50.810;4.442;2023-05-10T00:36:07;33.17;;;18.08;;
23608;SDS011;11982;50.810;4.442;2023-05-10T00:38:33;38.05;;;18.70;;
23608;SDS011;11982;50.810;4.442;2023-05-10T00:40:59;43.10;;;18.77;;
23608;SDS011;11982;50.810;4.442;2023-05-10T00:46:46;39.40;;;18.58;;
23608;SDS011;11982;50.810;4.442;2023-05-10T00:49:13;41.78;;;18.30;;
23608;SDS011;11982;50.810;4.442;2023-05-10T00:51:39;34.47;;;18.67;;
23608;SDS011;11982;50.810;4.442;2023-05-10T00:54:05;45.22;;;18.40;;
23608;SDS011;11982;50.810;4.442;2023-05-10T00:56:31;43.35;;;19.30;;
23608;SDS011;11982;50.810;4.442;2023-05-10T00:58:58;38.85;;;19.48;;
23608;SDS011;11982;50.810;4.442;2023-05-10T01:01:24;40.47;;;20.00;;
23608;SDS011;11982;50.810;4.442;2023-05-10T01:03:50;39.40;;;20.65;;
23608;SDS011;11982;50.810;4.442;2023-05-10T01:06:17;37.42;;;19.17;;
23608;SDS011;11982;50.810;4.442;2023-05-10T01:08:43;43.15;;;20.90;;
23608;SDS011;11982;50.810;4.442;2023-05-10T01:11:08;39.53;;;19.52;;
23608;SDS011;11982;50.810;4.442;2023-05-10T01:16:56;35.92;;;19.98;;
23608;SDS011;11982;50.810;4.442;2023-05-10T01:19:22;44.42;;;20.42;;
23608;SDS011;11982;50.810;4.442;2023-05-10T01:32:46;38.90;;;21.08;;
23608;SDS011;11982;50.810;4.442;2023-05-10T01:35:26;45.78;;;21.50;;
23608;SDS011;11982;50.810;4.442;2023-05-10T01:38:13;42.30;;;22.13;;
23608;SDS011;11982;50.810;4.442;2023-05-10T01:43:19;41.38;;;22.30;;
23608;SDS011;11982;50.810;4.442;2023-05-10T01:46:10;43.05;;;21.98;;
23608;SDS011;11982;50.810;4.442;2023-05-10T01:48:48;41.58;;;21.65;;
23608;SDS011;11982;50.810;4.442;2023-05-10T01:51:23;45.40;;;21.92;;
23608;SDS011;11982;50.810;4.442;2023-05-10T01:54:02;52.72;;;23.95;;
23608;SDS011;11982;50.810;4.442;2023-05-10T01:56:29;43.05;;;22.27;;
23608;SDS011;11982;50.810;4.442;2023-05-10T01:58:57;43.95;;;24.20;;
23608;SDS011;11982;50.810;4.442;2023-05-10T02:01:25;41.45;;;22.55;;
23608;SDS011;11982;50.810;4.442;2023-05-10T02:03:51;46.83;;;22.25;;
23608;SDS011;11982;50.810;4.442;2023-05-10T02:06:20;42.97;;;23.17;;
23608;SDS011;11982;50.810;4.442;2023-05-10T02:08:49;44.95;;;23.33;;
23608;SDS011;11982;50.810;4.442;2023-05-10T02:11:15;45.40;;;23.98;;
23608;SDS011;11982;50.810;4.442;2023-05-10T02:13:43;54.53;;;23.48;;
23608;SDS011;11982;50.810;4.442;2023-05-10T02:16:12;42.03;;;22.90;;
23608;SDS011;11982;50.810;4.442;2023-05-10T02:18:39;43.30;;;23.38;;
23608;SDS011;11982;50.810;4.442;2023-05-10T02:21:06;42.75;;;23.52;;
23608;SDS011;11982;50.810;4.442;2023-05-10T02:23:33;42.80;;;22.33;;
23608;SDS011;11982;50.810;4.442;2023-05-10T02:26:00;43.25;;;22.77;;
23608;SDS011;11982;50.810;4.442;2023-05-10T02:28:28;42.17;;;21.08;;
23608;SDS011;11982;50.810;4.442;2023-05-10T02:30:54;42.80;;;21.80;;
23608;SDS011;11982;50.810;4.442;2023-05-10T02:33:21;44.50;;;20.90;;
23608;SDS011;11982;50.810;4.442;2023-05-10T02:35:47;44.75;;;21.25;;
23608;SDS011;11982;50.810;4.442;2023-05-10T02:38:14;42.03;;;20.10;;
23608;SDS011;11982;50.810;4.442;2023-05-10T02:40:41;37.55;;;18.55;;
23608;SDS011;11982;50.810;4.442;2023-05-10T02:43:09;39.63;;;19.60;;
23608;SDS011;11982;50.810;4.442;2023-05-10T02:45:39;34.53;;;17.98;;
23608;SDS011;11982;50.810;4.442;2023-05-10T02:48:06;43.95;;;18.25;;
23608;SDS011;11982;50.810;4.442;2023-05-10T02:50:32;32.08;;;17.75;;
23608;SDS011;11982;50.810;4.442;2023-05-10T02:53:03;37.17;;;18.48;;
23608;SDS011;11982;50.810;4.442;2023-05-10T02:55:36;38.63;;;18.02;;
23608;SDS011;11982;50.810;4.442;2023-05-10T02:58:05;34.90;;;18.17;;
23608;SDS011;11982;50.810;4.442;2023-05-10T03:00:31;37.70;;;18.90;;
23608;SDS011;11982;50.810;4.442;2023-05-10T03:02:57;35.53;;;18.75;;
23608;SDS011;11982;50.810;4.442;2023-05-10T03:05:23;36.50;;;18.20;;
23608;SDS011;11982;50.810;4.442;2023-05-10T03:07:49;37.00;;;18.35;;
23608;SDS011;11982;50.810;4.442;2023-05-10T03:10:15;38.58;;;19.65;;
23608;SDS011;11982;50.810;4.442;2023-05-10T03:18:50;46.30;;;19.05;;
23608;SDS011;11982;50.810;4.442;2023-05-10T03:21:19;41.45;;;20.58;;
23608;SDS011;11982;50.810;4.442;2023-05-10T03:23:51;44.08;;;19.83;;
23608;SDS011;11982;50.810;4.442;2023-05-10T03:26:33;42.83;;;21.67;;
23608;SDS011;11982;50.810;4.442;2023-05-10T03:29:01;42.83;;;20.58;;
23608;SDS011;11982;50.810;4.442;2023-05-10T03:31:28;49.42;;;23.13;;
23608;SDS011;11982;50.810;4.442;2023-05-10T03:33:53;53.83;;;23.05;;
23608;SDS011;11982;50.810;4.442;2023-05-10T03:36:19;56.88;;;23.10;;
23608;SDS011;11982;50.810;4.442;2023-05-10T03:38:45;63.72;;;24.63;;
23608;SDS011;11982;50.810;4.442;2023-05-10T03:41:11;60.05;;;25.00;;
23608;SDS011;11982;50.810;4.442;2023-05-10T03:43:37;58.83;;;23.58;;
23608;SDS011;11982;50.810;4.442;2023-05-10T03:46:03;61.80;;;25.73;;
23608;SDS011;11982;50.810;4.442;2023-05-10T03:48:29;63.50;;;26.77;;
23608;SDS011;11982;50.810;4.442;2023-05-10T03:50:56;63.22;;;25.58;;
23608;SDS011;11982;50.810;4.442;2023-05-10T03:53:22;60.00;;;25.27;;
23608;SDS011;11982;50.810;4.442;2023-05-10T03:55:48;66.05;;;26.65;;
23608;SDS011;11982;50.810;4.442;2023-05-10T03:58:14;62.13;;;26.40;;
23608;SDS011;11982;50.810;4.442;2023-05-10T04:04:15;70.22;;;27.75;;
23608;SDS011;11982;50.810;4.442;2023-05-10T04:06:43;70.70;;;27.92;;
23608;SDS011;11982;50.810;4.442;2023-05-10T04:09:09;65.85;;;27.38;;
23608;SDS011;11982;50.810;4.442;2023-05-10T04:11:35;73.60;;;29.50;;
23608;SDS011;11982;50.810;4.442;2023-05-10T04:14:01;73.50;;;28.83;;
23608;SDS011;11982;50.810;4.442;2023-05-10T04:16:27;76.45;;;28.90;;
23608;SDS011;11982;50.810;4.442;2023-05-10T04:18:52;74.60;;;29.63;;
23608;SDS011;11982;50.810;4.442;2023-05-10T04:21:18;78.00;;;28.92;;
23608;SDS011;11982;50.810;4.442;2023-05-10T04:23:44;72.82;;;29.70;;
23608;SDS011;11982;50.810;4.442;2023-05-10T04:26:10;79.55;;;30.75;;
23608;SDS011;11982;50.810;4.442;2023-05-10T04:28:36;73.65;;;28.92;;
23608;SDS011;11982;50.810;4.442;2023-05-10T04:34:23;77.18;;;30.27;;
23608;SDS011;11982;50.810;4.442;2023-05-10T04:36:49;73.85;;;29.88;;
23608;SDS011;11982;50.810;4.442;2023-05-10T04:39:15;80.57;;;32.17;;
23608;SDS011;11982;50.810;4.442;2023-05-10T04:41:40;73.20;;;29.65;;
23608;SDS011;11982;50.810;4.442;2023-05-10T04:44:06;74.70;;;31.50;;
23608;SDS011;11982;50.810;4.442;2023-05-10T04:49:53;74.25;;;29.92;;
23608;SDS011;11982;50.810;4.442;2023-05-10T04:52:19;72.78;;;30.00;;
23608;SDS011;11982;50.810;4.442;2023-05-10T04:54:44;68.80;;;29.25;;
23608;SDS011;11982;50.810;4.442;2023-05-10T04:57:10;79.55;;;29.83;;
23608;SDS011;11982;50.810;4.442;2023-05-10T04:59:36;52.25;;;22.40;;
23608;SDS011;11982;50.810;4.442;2023-05-10T05:02:02;46.97;;;22.05;;
23608;SDS011;11982;50.810;4.442;2023-05-10T05:04:29;49.25;;;21.52;;
23608;SDS011;11982;50.810;4.442;2023-05-10T05:06:55;40.90;;;18.60;;
23608;SDS011;11982;50.810;4.442;2023-05-10T05:09:21;33.97;;;16.38;;
23608;SDS011;11982;50.810;4.442;2023-05-10T05:11:46;33.50;;;15.63;;
23608;SDS011;11982;50.810;4.442;2023-05-10T05:14:12;35.75;;;15.93;;
23608;SDS011;11982;50.810;4.442;2023-05-10T05:19:59;34.60;;;15.05;;
23608;SDS011;11982;50.810;4.442;2023-05-10T05:22:25;29.52;;;14.07;;
23608;SDS011;11982;50.810;4.442;2023-05-10T05:24:53;29.50;;;15.18;;
23608;SDS011;11982;50.810;4.442;2023-05-10T05:27:19;31.75;;;14.98;;
23608;SDS011;11982;50.810;4.442;2023-05-10T05:29:52;32.42;;;16.13;;
23608;SDS011;11982;50.810;4.442;2023-05-10T05:36:35;39.80;;;17.88;;
23608;SDS011;11982;50.810;4.442;2023-05-10T05:39:03;37.80;;;17.27;;
23608;SDS011;11982;50.810;4.442;2023-05-10T05:41:29;40.67;;;18.58;;
23608;SDS011;11982;50.810;4.442;2023-05-10T05:43:54;34.50;;;17.75;;
23608;SDS011;11982;50.810;4.442;2023-05-10T05:46:20;37.60;;;16.90;;
23608;SDS011;11982;50.810;4.442;2023-05-10T05:48:46;34.53;;;17.63;;
23608;SDS011;11982;50.810;4.442;2023-05-10T05:51:11;35.30;;;17.02;;
23608;SDS011;11982;50.810;4.442;2023-05-10T05:53:37;30.90;;;15.60;;
23608;SDS011;11982;50.810;4.442;2023-05-10T05:56:03;26.45;;;13.57;;
23608;SDS011;11982;50.810;4.442;2023-05-10T05:58:28;34.72;;;13.65;;
23608;SDS011;11982;50.810;4.442;2023-05-10T06:00:54;24.90;;;12.68;;
23608;SDS011;11982;50.810;4.442;2023-05-10T06:03:20;28.23;;;11.80;;
23608;SDS011;11982;50.810;4.442;2023-05-10T06:05:46;33.38;;;11.85;;
23608;SDS011;11982;50.810;4.442;2023-05-10T06:08:11;20.38;;;9.63;;
23608;SDS011;11982;50.810;4.442;2023-05-10T06:10:37;21.05;;;9.63;;
23608;SDS011;11982;50.810;4.442;2023-05-10T06:13:03;18.70;;;8.98;;
23608;SDS011;11982;50.810;4.442;2023-05-10T06:15:29;20.67;;;9.13;;
23608;SDS011;11982;50.810;4.442;2023-05-10T06:17:55;17.85;;;9.10;;
23608;SDS011;11982;50.810;4.442;2023-05-10T06:20:20;18.67;;;8.75;;
23608;SDS011;11982;50.810;4.442;2023-05-10T06:22:46;18.60;;;10.27;;
23608;SDS011;11982;50.810;4.442;2023-05-10T06:25:12;17.80;;;9.80;;
23608;SDS011;11982;50.810;4.442;2023-05-10T06:27:39;24.85;;;10.38;;
23608;SDS011;11982;50.810;4.442;2023-05-10T06:30:05;20.13;;;9.88;;
23608;SDS011;11982;50.810;4.442;2023-05-10T06:35:53;21.92;;;10.80;;
23608;SDS011;11982;50.810;4.442;2023-05-10T06:38:18;24.15;;;11.63;;
23608;SDS011;11982;50.810;4.442;2023-05-10T06:40:44;28.25;;;11.32;;
23608;SDS011;11982;50.810;4.442;2023-05-10T06:43:10;22.85;;;10.90;;
23608;SDS011;11982;50.810;4.442;2023-05-10T06:45:35;19.33;;;10.30;;
23608;SDS011;11982;50.810;4.442;2023-05-10T06:51:23;18.27;;;9.02;;
23608;SDS011;11982;50.810;4.442;2023-05-10T06:53:49;15.50;;;8.10;;
23608;SDS011;11982;50.810;4.442;2023-05-10T06:56:14;11.50;;;6.40;;
23608;SDS011;11982;50.810;4.442;2023-05-10T06:58:40;11.25;;;6.40;;
23608;SDS011;11982;50.810;4.442;2023-05-10T07:01:06;8.48;;;6.18;;
23608;SDS011;11982;50.810;4.442;2023-05-10T07:03:31;14.00;;;6.70;;
23608;SDS011;11982;50.810;4.442;2023-05-10T07:06:03;13.73;;;6.68;;
23608;SDS011;11982;50.810;4.442;2023-05-10T07:08:32;12.52;;;7.20;;
23608;SDS011;11982;50.810;4.442;2023-05-10T07:11:00;14.13;;;7.57;;
23608;SDS011;11982;50.810;4.442;2023-05-10T07:13:29;21.80;;;7.90;;
23608;SDS011;11982;50.810;4.442;2023-05-10T07:15:59;17.17;;;8.73;;
23608;SDS011;11982;50.810;4.442;2023-05-10T07:21:47;19.00;;;9.65;;
23608;SDS011;11982;50.810;4.442;2023-05-10T07:24:13;19.73;;;9.63;;
23608;SDS011;11982;50.810;4.442;2023-05-10T07:26:38;16.02;;;9.50;;
23608;SDS011;11982;50.810;4.442;2023-05-10T07:29:04;26.23;;;10.30;;
23608;SDS011;11982;50.810;4.442;2023-05-10T07:31:30;20.90;;;10.73;;
23608;SDS011;11982;50.810;4.442;2023-05-10T07:33:56;24.50;;;11.35;;
23608;SDS011;11982;50.810;4.442;2023-05-10T07:36:21;24.05;;;12.05;;
23608;SDS011;11982;50.810;4.442;2023-05-10T07:38:47;27.33;;;12.05;;
23608;SDS011;11982;50.810;4.442;2023-05-10T07:41:14;23.75;;;12.30;;
23608;SDS011;11982;50.810;4.442;2023-05-10T07:43:40;24.95;;;13.13;;
23608;SDS011;11982;50.810;4.442;2023-05-10T07:46:05;29.55;;;12.98;;
23608;SDS011;11982;50.810;4.442;2023-05-10T07:51:53;24.20;;;12.00;;
23608;SDS011;11982;50.810;4.442;2023-05-10T07:54:18;23.50;;;12.70;;
23608;SDS011;11982;50.810;4.442;2023-05-10T07:56:44;26.38;;;11.55;;
23608;SDS011;11982;50.810;4.442;2023-05-10T07:59:14;26.55;;;12.27;;
23608;SDS011;11982;50.810;4.442;2023-05-10T08:01:43;30.02;;;12.77;;
23608;SDS011;11982;50.810;4.442;2023-05-10T08:04:09;23.25;;;11.52;;
23608;SDS011;11982;50.810;4.442;2023-05-10T08:06:36;23.95;;;10.88;;
23608;SDS011;11982;50.810;4.442;2023-05-10T08:09:02;21.45;;;10.38;;
23608;SDS011;11982;50.810;4.442;2023-05-10T08:11:27;17.92;;;10.27;;
23608;SDS011;11982;50.810;4.442;2023-05-10T08:13:53;19.75;;;9.55;;
23608;SDS011;11982;50.810;4.442;2023-05-10T08:16:20;15.88;;;9.30;;
23608;SDS011;11982;50.810;4.442;2023-05-10T08:22:07;20.63;;;9.45;;
23608;SDS011;11982;50.810;4.442;2023-05-10T08:24:33;14.23;;;8.27;;
23608;SDS011;11982;50.810;4.442;2023-05-10T08:27:03;15.45;;;8.27;;
23608;SDS011;11982;50.810;4.442;2023-05-10T08:29:29;15.30;;;8.85;;
23608;SDS011;11982;50.810;4.442;2023-05-10T08:31:55;17.15;;;7.72;;
23608;SDS011;11982;50.810;4.442;2023-05-10T08:34:21;14.85;;;7.60;;
23608;SDS011;11982;50.810;4.442;2023-05-10T08:36:46;13.48;;;7.15;;
23608;SDS011;11982;50.810;4.442;2023-05-10T08:39:12;16.05;;;7.07;;
23608;SDS011;11982;50.810;4.442;2023-05-10T08:41:39;12.40;;;6.70;;
23608;SDS011;11982;50.810;4.442;2023-05-10T08:44:05;12.95;;;7.03;;
23608;SDS011;11982;50.810;4.442;2023-05-10T08:46:33;17.13;;;7.22;;
23608;SDS011;11982;50.810;4.442;2023-05-10T08:52:25;12.68;;;6.72;;
23608;SDS011;11982;50.810;4.442;2023-05-10T08:54:53;13.35;;;7.00;;
23608;SDS011;11982;50.810;4.442;2023-05-10T08:57:19;12.00;;;6.82;;
23608;SDS011;11982;50.810;4.442;2023-05-10T08:59:45;13.85;;;7.18;;
23608;SDS011;11982;50.810;4.442;2023-05-10T09:02:11;17.88;;;7.03;;
23608;SDS011;11982;50.810;4.442;2023-05-10T09:09:18;16.50;;;7.15;;
23608;SDS011;11982;50.810;4.442;2023-05-10T09:11:45;11.82;;;7.03;;
23608;SDS011;11982;50.810;4.442;2023-05-10T09:14:11;12.25;;;7.40;;
23608;SDS011;11982;50.810;4.442;2023-05-10T09:16:38;13.02;;;7.45;;
23608;SDS011;11982;50.810;4.442;2023-05-10T09:22:26;13.57;;;7.22;;
23608;SDS011;11982;50.810;4.442;2023-05-10T09:25:08;17.25;;;7.97;;
23608;SDS011;11982;50.810;4.442;2023-05-10T09:27:39;14.70;;;7.80;;
23608;SDS011;11982;50.810;4.442;2023-05-10T09:30:06;14.13;;;8.07;;
23608;SDS011;11982;50.810;4.442;2023-05-10T09:32:45;11.85;;;7.32;;
23608;SDS011;11982;50.810;4.442;2023-05-10T09:37:39;12.27;;;7.28;;
23608;SDS011;11982;50.810;4.442;2023-05-10T09:40:07;14.13;;;7.85;;
23608;SDS011;11982;50.810;4.442;2023-05-10T09:42:36;15.13;;;7.70;;
23608;SDS011;11982;50.810;4.442;2023-05-10T09:45:04;11.23;;;7.03;;
23608;SDS011;11982;50.810;4.442;2023-05-10T09:47:32;11.63;;;7.00;;
23608;SDS011;11982;50.810;4.442;2023-05-10T09:53:20;14.05;;;7.50;;
23608;SDS011;11982;50.810;4.442;2023-05-10T09:55:46;11.63;;;6.30;;
23608;SDS011;11982;50.810;4.442;2023-05-10T09:58:14;12.85;;;6.70;;
23608;SDS011;11982;50.810;4.442;2023-05-10T10:00:40;10.45;;;6.38;;
23608;SDS011;11982;50.810;4.442;2023-05-10T10:03:14;8.57;;;5.45;;
23608;SDS011;11982;50.810;4.442;2023-05-10T10:05:42;5.72;;;4.32;;
23608;SDS011;11982;50.810;4.442;2023-05-10T10:08:09;9.52;;;4.55;;
23608;SDS011;11982;50.810;4.442;2023-05-10T10:10:37;4.88;;;4.05;;
23608;SDS011;11982;50.810;4.442;2023-05-10T10:13:05;6.88;;;3.95;;
23608;SDS011;11982;50.810;4.442;2023-05-10T10:15:31;6.47;;;4.18;;
23608;SDS011;11982;50.810;4.442;2023-05-10T10:17:58;4.95;;;3.95;;
23608;SDS011;11982;50.810;4.442;2023-05-10T10:20:25;4.60;;;3.75;;
23608;SDS011;11982;50.810;4.442;2023-05-10T10:22:51;5.22;;;3.50;;
23608;SDS011;11982;50.810;4.442;2023-05-10T10:25:18;5.72;;;3.85;;
23608;SDS011;11982;50.810;4.442;2023-05-10T10:39:28;7.43;;;3.50;;
23608;SDS011;11982;50.810;4.442;2023-05-10T10:44:33;4.18;;;3.10;;
23608;SDS011;11982;50.810;4.442;2023-05-10T10:47:08;3.30;;;3.00;;
23608;SDS011;11982;50.810;4.442;2023-05-10T10:57:31;6.63;;;4.43;;
23608;SDS011;11982;50.810;4.442;2023-05-10T11:00:36;4.90;;;4.00;;
23608;SDS011;11982;50.810;4.442;2023-05-10T11:03:09;6.68;;;4.32;;
23608;SDS011;11982;50.810;4.442;2023-05-10T11:05:47;5.65;;;4.30;;
23608;SDS011;11982;50.810;4.442;2023-05-10T11:08:18;5.82;;;4.22;;
23608;SDS011;11982;50.810;4.442;2023-05-10T11:22:13;6.13;;;4.28;;
23608;SDS011;11982;50.810;4.442;2023-05-10T11:24:39;11.65;;;4.68;;
23608;SDS011;11982;50.810;4.442;2023-05-10T11:27:07;7.60;;;4.93;;
23608;SDS011;11982;50.810;4.442;2023-05-10T11:29:33;4.97;;;4.28;;
23608;SDS011;11982;50.810;4.442;2023-05-10T11:31:59;7.05;;;4.07;;
23608;SDS011;11982;50.810;4.442;2023-05-10T11:37:47;6.13;;;4.60;;
23608;SDS011;11982;50.810;4.442;2023-05-10T11:40:13;4.97;;;4.05;;
23608;SDS011;11982;50.810;4.442;2023-05-10T11:42:39;6.05;;;4.60;;
23608;SDS011;11982;50.810;4.442;2023-05-10T11:45:05;4.95;;;3.83;;
23608;SDS011;11982;50.810;4.442;2023-05-10T11:47:31;4.22;;;3.75;;
23608;SDS011;11982;50.810;4.442;2023-05-10T11:53:19;4.22;;;3.42;;
23608;SDS011;11982;50.810;4.442;2023-05-10T11:55:45;4.30;;;3.45;;
23608;SDS011;11982;50.810;4.442;2023-05-10T11:58:11;5.82;;;3.40;;
23608;SDS011;11982;50.810;4.442;2023-05-10T12:00:36;4.28;;;3.63;;
23608;SDS011;11982;50.810;4.442;2023-05-10T12:03:02;3.78;;;3.30;;
23608;SDS011;11982;50.810;4.442;2023-05-10T12:08:50;3.40;;;3.10;;
23608;SDS011;11982;50.810;4.442;2023-05-10T12:11:18;3.58;;;3.28;;
23608;SDS011;11982;50.810;4.442;2023-05-10T12:13:45;4.10;;;2.85;;
23608;SDS011;11982;50.810;4.442;2023-05-10T12:16:12;3.92;;;3.30;;
23608;SDS011;11982;50.810;4.442;2023-05-10T12:18:39;5.40;;;3.15;;
23608;SDS011;11982;50.810;4.442;2023-05-10T12:25:11;4.80;;;2.72;;
23608;SDS011;11982;50.810;4.442;2023-05-10T12:27:37;3.65;;;3.25;;
23608;SDS011;11982;50.810;4.442;2023-05-10T12:30:03;4.05;;;3.30;;
23608;SDS011;11982;50.810;4.442;2023-05-10T12:32:39;5.30;;;3.08;;
23608;SDS011;11982;50.810;4.442;2023-05-10T12:35:06;4.05;;;3.38;;
23608;SDS011;11982;50.810;4.442;2023-05-10T12:37:33;5.82;;;3.45;;
23608;SDS011;11982;50.810;4.442;2023-05-10T12:40:07;4.88;;;3.10;;
23608;SDS011;11982;50.810;4.442;2023-05-10T12:42:34;3.35;;;3.05;;
23608;SDS011;11982;50.810;4.442;2023-05-10T12:45:03;6.07;;;3.58;;
23608;SDS011;11982;50.810;4.442;2023-05-10T12:47:30;3.72;;;3.35;;
23608;SDS011;11982;50.810;4.442;2023-05-10T12:49:57;4.20;;;3.20;;
23608;SDS011;11982;50.810;4.442;2023-05-10T12:52:23;6.55;;;3.30;;
23608;SDS011;11982;50.810;4.442;2023-05-10T12:54:49;4.18;;;3.78;;
23608;SDS011;11982;50.810;4.442;2023-05-10T12:57:15;4.30;;;3.33;;
23608;SDS011;11982;50.810;4.442;2023-05-10T12:59:41;7.43;;;3.63;;
23608;SDS011;11982;50.810;4.442;2023-05-10T13:02:07;4.30;;;3.80;;
23608;SDS011;11982;50.810;4.442;2023-05-10T13:04:33;4.80;;;4.30;;
23608;SDS011;11982;50.810;4.442;2023-05-10T13:06:59;6.13;;;4.53;;
23608;SDS011;11982;50.810;4.442;2023-05-10T13:09:25;7.00;;;4.72;;
23608;SDS011;11982;50.810;4.442;2023-05-10T13:11:51;4.97;;;4.38;;
23608;SDS011;11982;50.810;4.442;2023-05-10T13:14:19;5.43;;;4.57;;
23608;SDS011;11982;50.810;4.442;2023-05-10T13:16:45;5.47;;;4.43;;
23608;SDS011;11982;50.810;4.442;2023-05-10T13:19:12;8.52;;;4.40;;
23608;SDS011;11982;50.810;4.442;2023-05-10T13:25:03;5.95;;;5.00;;
23608;SDS011;11982;50.810;4.442;2023-05-10T13:27:29;10.10;;;5.20;;
23608;SDS011;11982;50.810;4.442;2023-05-10T13:29:54;6.43;;;4.88;;
23608;SDS011;11982;50.810;4.442;2023-05-10T13:32:20;6.28;;;4.78;;
23608;SDS011;11982;50.810;4.442;2023-05-10T13:34:46;7.32;;;4.50;;
23608;SDS011;11982;50.810;4.442;2023-05-10T13:40:33;8.43;;;5.10;;
23608;SDS011;11982;50.810;4.442;2023-05-10T13:43:00;7.13;;;5.50;;
23608;SDS011;11982;50.810;4.442;2023-05-10T13:45:26;8.88;;;5.07;;
23608;SDS011;11982;50.810;4.442;2023-05-10T13:47:52;6.72;;;4.68;;
23608;SDS011;11982;50.810;4.442;2023-05-10T13:50:18;7.80;;;5.20;;
23608;SDS011;11982;50.810;4.442;2023-05-10T13:52:44;8.15;;;5.53;;
23608;SDS011;11982;50.810;4.442;2023-05-10T13:55:09;7.47;;;4.78;;
23608;SDS011;11982;50.810;4.442;2023-05-10T13:57:37;9.23;;;5.35;;
23608;SDS011;11982;50.810;4.442;2023-05-10T14:00:03;9.55;;;5.88;;
23608;SDS011;11982;50.810;4.442;2023-05-10T14:02:29;8.18;;;5.80;;
23608;SDS011;11982;50.810;4.442;2023-05-10T14:04:55;11.13;;;5.78;;
23608;SDS011;11982;50.810;4.442;2023-05-10T14:10:42;8.10;;;6.13;;
23608;SDS011;11982;50.810;4.442;2023-05-10T14:13:08;12.38;;;6.18;;
23608;SDS011;11982;50.810;4.442;2023-05-10T14:15:34;10.68;;;7.40;;
23608;SDS011;11982;50.810;4.442;2023-05-10T14:17:59;12.88;;;8.65;;
23608;SDS011;11982;50.810;4.442;2023-05-10T14:20:25;16.55;;;8.75;;
23608;SDS011;11982;50.810;4.442;2023-05-10T14:22:51;13.75;;;8.43;;
23608;SDS011;11982;50.810;4.442;2023-05-10T14:25:16;15.05;;;9.02;;
23608;SDS011;11982;50.810;4.442;2023-05-10T14:27:42;12.43;;;8.35;;
23608;SDS011;11982;50.810;4.442;2023-05-10T14:30:08;14.40;;;9.15;;
23608;SDS011;11982;50.810;4.442;2023-05-10T14:32:34;12.40;;;9.18;;
23608;SDS011;11982;50.810;4.442;2023-05-10T14:35:01;13.85;;;8.82;;
23608;SDS011;11982;50.810;4.442;2023-05-10T14:40:49;18.98;;;10.77;;
23608;SDS011;11982;50.810;4.442;2023-05-10T14:43:15;19.50;;;10.63;;
23608;SDS011;11982;50.810;4.442;2023-05-10T14:45:41;18.50;;;11.38;;
23608;SDS011;11982;50.810;4.442;2023-05-10T14:48:06;21.05;;;12.57;;
23608;SDS011;11982;50.810;4.442;2023-05-10T14:50:36;22.05;;;12.75;;
23608;SDS011;11982;50.810;4.442;2023-05-10T14:53:01;23.40;;;13.05;;
23608;SDS011;11982;50.810;4.442;2023-05-10T14:55:27;20.15;;;11.90;;
23608;SDS011;11982;50.810;4.442;2023-05-10T14:57:53;24.35;;;14.27;;
23608;SDS011;11982;50.810;4.442;2023-05-10T15:00:19;22.48;;;13.00;;
23608;SDS011;11982;50.810;4.442;2023-05-10T15:02:45;23.98;;;14.10;;
23608;SDS011;11982;50.810;4.442;2023-05-10T15:05:11;23.98;;;14.48;;
23608;SDS011;11982;50.810;4.442;2023-05-10T15:10:58;27.38;;;15.10;;
23608;SDS011;11982;50.810;4.442;2023-05-10T15:13:24;22.40;;;15.15;;
23608;SDS011;11982;50.810;4.442;2023-05-10T15:15:50;21.25;;;12.68;;
23608;SDS011;11982;50.810;4.442;2023-05-10T15:18:15;17.95;;;12.02;;
23608;SDS011;11982;50.810;4.442;2023-05-10T15:20:41;18.98;;;10.52;;
23608;SDS011;11982;50.810;4.442;2023-05-10T15:26:28;12.00;;;7.47;;
23608;SDS011;11982;50.810;4.442;2023-05-10T15:28:54;10.23;;;6.25;;
23608;SDS011;11982;50.810;4.442;2023-05-10T15:31:19;11.70;;;6.63;;
23608;SDS011;11982;50.810;4.442;2023-05-10T15:33:45;12.48;;;6.68;;
23608;SDS011;11982;50.810;4.442;2023-05-10T15:36:11;12.38;;;7.93;;
23608;SDS011;11982;50.810;4.442;2023-05-10T15:38:36;11.32;;;7.70;;
23608;SDS011;11982;50.810;4.442;2023-05-10T15:41:02;12.43;;;6.90;;
23608;SDS011;11982;50.810;4.442;2023-05-10T15:43:28;12.25;;;6.40;;
23608;SDS011;11982;50.810;4.442;2023-05-10T15:45:53;9.25;;;5.22;;
23608;SDS011;11982;50.810;4.442;2023-05-10T15:48:19;13.93;;;5.65;;
23608;SDS011;11982;50.810;4.442;2023-05-10T15:50:45;10.20;;;4.53;;
23608;SDS011;11982;50.810;4.442;2023-05-10T15:56:32;11.48;;;4.18;;
23608;SDS011;11982;50.810;4.442;2023-05-10T15:58:59;11.38;;;3.35;;
23608;SDS011;11982;50.810;4.442;2023-05-10T16:01:25;11.20;;;3.67;;
23608;SDS011;11982;50.810;4.442;2023-05-10T16:03:50;10.07;;;3.20;;
23608;SDS011;11982;50.810;4.442;2023-05-10T16:06:16;11.75;;;3.78;;
23608;SDS011;11982;50.810;4.442;2023-05-10T16:12:04;8.85;;;3.65;;
23608;SDS011;11982;50.810;4.442;2023-05-10T16:14:29;11.20;;;3.97;;
23608;SDS011;11982;50.810;4.442;2023-05-10T16:16:55;10.45;;;3.80;;
23608;SDS011;11982;50.810;4.442;2023-05-10T16:19:21;9.75;;;4.13;;
23608;SDS011;11982;50.810;4.442;2023-05-10T16:21:47;9.10;;;3.70;;
23608;SDS011;11982;50.810;4.442;2023-05-10T16:24:12;13.75;;;4.22;;
23608;SDS011;11982;50.810;4.442;2023-05-10T16:26:38;10.70;;;4.47;;
23608;SDS011;11982;50.810;4.442;2023-05-10T16:29:05;10.48;;;4.30;;
23608;SDS011;11982;50.810;4.442;2023-05-10T16:31:34;11.77;;;4.93;;
23608;SDS011;11982;50.810;4.442;2023-05-10T16:34:00;12.90;;;5.32;;
23608;SDS011;11982;50.810;4.442;2023-05-10T16:36:26;13.25;;;5.20;;
23608;SDS011;11982;50.810;4.442;2023-05-10T16:42:14;15.43;;;7.65;;
23608;SDS011;11982;50.810;4.442;2023-05-10T16:44:40;18.58;;;7.72;;
23608;SDS011;11982;50.810;4.442;2023-05-10T16:47:06;13.18;;;7.70;;
23608;SDS011;11982;50.810;4.442;2023-05-10T16:49:32;20.45;;;8.57;;
23608;SDS011;11982;50.810;4.442;2023-05-10T16:52:00;19.92;;;8.38;;
23608;SDS011;11982;50.810;4.442;2023-05-10T16:54:27;23.15;;;9.20;;
23608;SDS011;11982;50.810;4.442;2023-05-10T16:56:53;20.77;;;8.55;;
23608;SDS011;11982;50.810;4.442;2023-05-10T16:59:19;19.75;;;8.60;;
23608;SDS011;11982;50.810;4.442;2023-05-10T17:01:44;28.20;;;9.93;;
23608;SDS011;11982;50.810;4.442;2023-05-10T17:04:11;21.60;;;9.95;;
23608;SDS011;11982;50.810;4.442;2023-05-10T17:06:38;16.30;;;9.80;;
23608;SDS011;11982;50.810;4.442;2023-05-10T17:12:25;21.92;;;10.23;;